createdAt,value
2018-01-08T00:00:34.379Z,0
2018-01-08T00:01:33.788Z,0
2018-01-08T00:02:34.074Z,0
2018-01-08T00:03:34.084Z,0
2018-01-08T00:04:33.823Z,0
2018-01-08T00:05:34.107Z,0
2018-01-08T00:06:34.117Z,0
2018-01-08T00:07:34.414Z,0
2018-01-08T00:08:34.471Z,0
2018-01-08T00:09:34.161Z,0
2018-01-08T00:10:34.213Z,0
2018-01-08T00:11:33.898Z,0
2018-01-08T00:12:34.464Z,0
2018-01-08T00:13:34.198Z,0
2018-01-08T00:14:34.488Z,0
2018-01-08T00:15:34.220Z,0
2018-01-08T00:16:34.240Z,0
2018-01-08T00:17:34.523Z,0
2018-01-08T00:18:34.570Z,0
2018-01-08T00:19:34.276Z,0
2018-01-08T00:20:34.005Z,0
2018-01-08T00:21:34.025Z,0
2018-01-08T00:22:34.296Z,0
2018-01-08T00:23:34.585Z,0
2018-01-08T00:24:34.319Z,0
2018-01-08T00:25:34.110Z,0
2018-01-08T00:26:34.626Z,0
2018-01-08T00:27:34.626Z,0
2018-01-08T00:28:34.365Z,0
2018-01-08T00:29:34.652Z,0
2018-01-08T00:30:34.661Z,0
2018-01-08T00:31:34.123Z,0
2018-01-08T00:32:34.407Z,0
2018-01-08T00:33:34.418Z,0
2018-01-08T00:34:34.425Z,0
2018-01-08T00:35:34.439Z,0
2018-01-08T00:36:34.455Z,0
2018-01-08T00:37:34.461Z,0
2018-01-08T00:38:34.473Z,0
2018-01-08T00:39:34.480Z,0
2018-01-08T00:40:34.547Z,0
2018-01-08T00:41:34.510Z,0
2018-01-08T00:42:34.240Z,0
2018-01-08T00:43:34.251Z,0
2018-01-08T00:44:34.539Z,0
2018-01-08T00:45:34.328Z,0
2018-01-08T00:46:34.841Z,0
2018-01-08T00:47:34.849Z,0
2018-01-08T00:48:34.308Z,0
2018-01-08T00:49:34.598Z,0
2018-01-08T00:50:34.607Z,0
2018-01-08T00:51:34.628Z,0
2018-01-08T00:52:34.633Z,0
2018-01-08T00:53:34.365Z,0
2018-01-08T00:54:34.650Z,0
2018-01-08T00:55:34.709Z,0
2018-01-08T00:56:34.677Z,0
2018-01-08T00:57:34.691Z,0
2018-01-08T00:58:34.421Z,0
2018-01-08T00:59:34.710Z,0
2018-01-08T01:00:34.504Z,0
2018-01-08T01:01:35.001Z,0
2018-01-08T01:02:34.463Z,0
2018-01-08T01:03:35.032Z,0
2018-01-08T01:04:34.765Z,0
2018-01-08T01:05:34.780Z,0
2018-01-08T01:06:35.060Z,0
2018-01-08T01:07:35.077Z,0
2018-01-08T01:08:34.804Z,0
2018-01-08T01:09:34.814Z,0
2018-01-08T01:10:34.827Z,0
2018-01-08T01:11:34.560Z,0
2018-01-08T01:12:34.850Z,0
2018-01-08T01:13:34.861Z,0
2018-01-08T01:14:34.873Z,0
2018-01-08T01:15:35.158Z,0
2018-01-08T01:16:34.899Z,0
2018-01-08T01:17:34.907Z,0
2018-01-08T01:18:34.640Z,0
2018-01-08T01:19:34.924Z,0
2018-01-08T01:20:34.947Z,0
2018-01-08T01:21:34.955Z,0
2018-01-08T01:22:34.959Z,0
2018-01-08T01:23:35.251Z,0
2018-01-08T01:24:34.702Z,0
2018-01-08T01:25:34.718Z,0
2018-01-08T01:26:35.023Z,0
2018-01-08T01:27:35.293Z,0
2018-01-08T01:28:35.306Z,0
2018-01-08T01:29:35.039Z,0
2018-01-08T01:30:35.051Z,0
2018-01-08T01:31:35.063Z,0
2018-01-08T01:32:35.074Z,0
2018-01-08T01:33:34.803Z,0
2018-01-08T01:34:34.824Z,0
2018-01-08T01:35:35.382Z,0
2018-01-08T01:36:35.112Z,0
2018-01-08T01:37:34.848Z,0
2018-01-08T01:38:35.132Z,0
2018-01-08T01:39:35.448Z,0
2018-01-08T01:40:35.163Z,0
2018-01-08T01:41:35.172Z,0
2018-01-08T01:42:34.906Z,0
2018-01-08T01:43:35.191Z,0
2018-01-08T01:44:35.205Z,0
2018-01-08T01:45:35.492Z,0
2018-01-08T01:46:35.270Z,0
2018-01-08T01:47:35.509Z,0
2018-01-08T01:48:35.518Z,0
2018-01-08T01:49:35.253Z,0
2018-01-08T01:50:35.540Z,0
2018-01-08T01:51:35.277Z,0
2018-01-08T01:52:35.285Z,0
2018-01-08T01:53:35.590Z,0
2018-01-08T01:54:35.582Z,0
2018-01-08T01:55:34.774Z,0
2018-01-08T01:56:35.331Z,0
2018-01-08T01:57:34.792Z,0
2018-01-08T01:58:35.350Z,0
2018-01-08T01:59:35.363Z,0
2018-01-08T02:00:34.823Z,0
2018-01-08T02:01:35.735Z,0
2018-01-08T02:02:35.403Z,0
2018-01-08T02:03:35.686Z,0
2018-01-08T02:04:35.697Z,0
2018-01-08T02:05:35.437Z,0
2018-01-08T02:06:35.727Z,0
2018-01-08T02:07:35.452Z,0
2018-01-08T02:08:35.740Z,0
2018-01-08T02:09:35.198Z,0
2018-01-08T02:10:35.767Z,0
2018-01-08T02:11:35.823Z,0
2018-01-08T02:12:34.959Z,0
2018-01-08T02:13:35.791Z,0
2018-01-08T02:14:35.526Z,0
2018-01-08T02:15:35.819Z,0
2018-01-08T02:16:35.328Z,0
2018-01-08T02:17:35.840Z,0
2018-01-08T02:18:35.299Z,0
2018-01-08T02:19:35.580Z,0
2018-01-08T02:20:35.318Z,0
2018-01-08T02:21:35.606Z,0
2018-01-08T02:22:35.613Z,0
2018-01-08T02:23:35.630Z,0
2018-01-08T02:24:35.086Z,0
2018-01-08T02:25:35.927Z,0
2018-01-08T02:26:35.982Z,0
2018-01-08T02:27:35.942Z,0
2018-01-08T02:28:35.682Z,0
2018-01-08T02:29:35.414Z,0
2018-01-08T02:30:35.705Z,0
2018-01-08T02:31:35.717Z,0
2018-01-08T02:32:36.025Z,0
2018-01-08T02:33:35.183Z,0
2018-01-08T02:34:35.471Z,0
2018-01-08T02:35:36.030Z,0
2018-01-08T02:36:36.045Z,0
2018-01-08T02:37:35.791Z,0
2018-01-08T02:38:35.796Z,0
2018-01-08T02:39:35.530Z,0
2018-01-08T02:40:35.535Z,0
2018-01-08T02:41:35.330Z,0
2018-01-08T02:42:35.837Z,0
2018-01-08T02:43:35.855Z,0
2018-01-08T02:44:36.136Z,0
2018-01-08T02:45:36.141Z,0
2018-01-08T02:46:35.931Z,0
2018-01-08T02:47:36.166Z,0
2018-01-08T02:48:35.907Z,0
2018-01-08T02:49:35.913Z,0
2018-01-08T02:50:35.925Z,0
2018-01-08T02:51:35.935Z,0
2018-01-08T02:52:35.947Z,0
2018-01-08T02:53:35.961Z,0
2018-01-08T02:54:35.965Z,0
2018-01-08T02:55:35.696Z,0
2018-01-08T02:56:35.983Z,0
2018-01-08T02:57:36.276Z,0
2018-01-08T02:58:36.004Z,0
2018-01-08T02:59:36.018Z,0
2018-01-08T03:00:35.757Z,0
2018-01-08T03:01:35.815Z,0
2018-01-08T03:02:36.321Z,0
2018-01-08T03:03:36.335Z,0
2018-01-08T03:04:36.082Z,0
2018-01-08T03:05:36.081Z,0
2018-01-08T03:06:35.818Z,0
2018-01-08T03:07:36.104Z,0
2018-01-08T03:08:36.110Z,0
2018-01-08T03:09:36.123Z,0
2018-01-08T03:10:36.138Z,0
2018-01-08T03:11:36.202Z,0
2018-01-08T03:12:35.894Z,0
2018-01-08T03:13:36.175Z,0
2018-01-08T03:14:36.184Z,0
2018-01-08T03:15:36.476Z,0
2018-01-08T03:16:36.480Z,0
2018-01-08T03:17:36.493Z,0
2018-01-08T03:18:36.227Z,0
2018-01-08T03:19:36.241Z,0
2018-01-08T03:20:36.248Z,0
2018-01-08T03:21:36.596Z,0
2018-01-08T03:22:36.550Z,0
2018-01-08T03:23:36.276Z,0
2018-01-08T03:24:36.012Z,0
2018-01-08T03:25:36.299Z,0
2018-01-08T03:26:36.040Z,0
2018-01-08T03:27:36.049Z,0
2018-01-08T03:28:36.332Z,0
2018-01-08T03:29:36.067Z,0
2018-01-08T03:30:36.362Z,0
2018-01-08T03:31:36.716Z,0
2018-01-08T03:32:36.097Z,0
2018-01-08T03:33:36.676Z,0
2018-01-08T03:34:36.394Z,0
2018-01-08T03:35:35.859Z,0
2018-01-08T03:36:36.691Z,0
2018-01-08T03:37:36.723Z,0
2018-01-08T03:38:36.439Z,0
2018-01-08T03:39:36.454Z,0
2018-01-08T03:40:36.458Z,0
2018-01-08T03:41:36.754Z,0
2018-01-08T03:42:36.486Z,0
2018-01-08T03:43:36.767Z,0
2018-01-08T03:44:36.780Z,0
2018-01-08T03:45:36.788Z,0
2018-01-08T03:46:36.525Z,0
2018-01-08T03:47:36.535Z,0
2018-01-08T03:48:36.273Z,0
2018-01-08T03:49:36.594Z,0
2018-01-08T03:50:36.849Z,0
2018-01-08T03:51:36.857Z,0
2018-01-08T03:52:36.865Z,0
2018-01-08T03:53:36.323Z,0
2018-01-08T03:54:36.610Z,0
2018-01-08T03:55:36.898Z,0
2018-01-08T03:56:36.361Z,0
2018-01-08T03:57:36.367Z,0
2018-01-08T03:58:36.658Z,0
2018-01-08T03:59:36.941Z,0
2018-01-08T04:00:36.677Z,0
2018-01-08T04:01:36.687Z,0
2018-01-08T04:02:36.422Z,0
2018-01-08T04:03:36.705Z,0
2018-01-08T04:04:37.001Z,0
2018-01-08T04:05:36.723Z,0
2018-01-08T04:06:36.481Z,0
2018-01-08T04:07:36.751Z,0
2018-01-08T04:08:36.760Z,0
2018-01-08T04:09:36.502Z,0
2018-01-08T04:10:36.786Z,0
2018-01-08T04:11:36.799Z,0
2018-01-08T04:12:37.132Z,0
2018-01-08T04:13:36.538Z,0
2018-01-08T04:14:36.825Z,0
2018-01-08T04:15:36.839Z,0
2018-01-08T04:16:36.851Z,0
2018-01-08T04:17:37.183Z,0
2018-01-08T04:18:36.870Z,0
2018-01-08T04:19:36.606Z,0
2018-01-08T04:20:36.613Z,0
2018-01-08T04:21:36.904Z,0
2018-01-08T04:22:36.909Z,0
2018-01-08T04:23:36.922Z,0
2018-01-08T04:24:36.657Z,0
2018-01-08T04:25:36.951Z,0
2018-01-08T04:26:36.679Z,0
2018-01-08T04:27:36.971Z,0
2018-01-08T04:28:36.992Z,0
2018-01-08T04:29:36.987Z,0
2018-01-08T04:30:36.725Z,0
2018-01-08T04:31:36.734Z,0
2018-01-08T04:32:37.074Z,0
2018-01-08T04:33:37.030Z,0
2018-01-08T04:34:37.039Z,0
2018-01-08T04:35:37.332Z,0
2018-01-08T04:36:37.063Z,0
2018-01-08T04:37:37.370Z,0
2018-01-08T04:38:36.808Z,0
2018-01-08T04:39:37.367Z,0
2018-01-08T04:40:36.829Z,0
2018-01-08T04:41:36.838Z,0
2018-01-08T04:42:37.402Z,0
2018-01-08T04:43:37.142Z,0
2018-01-08T04:44:37.148Z,0
2018-01-08T04:45:37.156Z,0
2018-01-08T04:46:37.444Z,0
2018-01-08T04:47:36.901Z,0
2018-01-08T04:48:37.200Z,0
2018-01-08T04:49:37.230Z,0
2018-01-08T04:50:37.497Z,0
2018-01-08T04:51:36.951Z,0
2018-01-08T04:52:37.234Z,0
2018-01-08T04:53:37.240Z,0
2018-01-08T04:54:37.545Z,0
2018-01-08T04:55:36.998Z,0
2018-01-08T04:56:37.000Z,0
2018-01-08T04:57:37.564Z,0
2018-01-08T04:58:37.574Z,0
2018-01-08T04:59:37.039Z,0
2018-01-08T05:00:37.330Z,0
2018-01-08T05:01:37.609Z,0
2018-01-08T05:02:37.613Z,0
2018-01-08T05:03:36.798Z,0
2018-01-08T05:04:37.367Z,0
2018-01-08T05:05:37.370Z,0
2018-01-08T05:06:37.384Z,0
2018-01-08T05:07:37.390Z,0
2018-01-08T05:08:37.400Z,0
2018-01-08T05:09:37.412Z,0
2018-01-08T05:10:37.461Z,0
2018-01-08T05:11:37.732Z,0
2018-01-08T05:12:37.498Z,0
2018-01-08T05:13:37.732Z,0
2018-01-08T05:14:37.468Z,0
2018-01-08T05:15:37.204Z,0
2018-01-08T05:16:37.212Z,0
2018-01-08T05:17:37.500Z,0
2018-01-08T05:18:37.788Z,0
2018-01-08T05:19:37.240Z,0
2018-01-08T05:20:37.532Z,0
2018-01-08T05:21:37.543Z,0
2018-01-08T05:22:37.557Z,0
2018-01-08T05:23:37.565Z,0
2018-01-08T05:24:37.572Z,0
2018-01-08T05:25:37.310Z,0
2018-01-08T05:26:37.872Z,0
2018-01-08T05:27:37.379Z,0
2018-01-08T05:28:37.612Z,0
2018-01-08T05:29:37.630Z,0
2018-01-08T05:30:37.361Z,0
2018-01-08T05:31:37.921Z,0
2018-01-08T05:32:37.975Z,0
2018-01-08T05:33:37.948Z,0
2018-01-08T05:34:37.956Z,0
2018-01-08T05:35:37.687Z,0
2018-01-08T05:36:37.711Z,0
2018-01-08T05:37:37.762Z,0
2018-01-08T05:38:37.719Z,0
2018-01-08T05:39:37.455Z,0
2018-01-08T05:40:37.741Z,0
2018-01-08T05:41:37.753Z,0
2018-01-08T05:42:38.040Z,0
2018-01-08T05:43:38.048Z,0
2018-01-08T05:44:37.508Z,0
2018-01-08T05:45:37.796Z,0
2018-01-08T05:46:37.527Z,0
2018-01-08T05:47:37.539Z,0
2018-01-08T05:48:37.825Z,0
2018-01-08T05:49:37.566Z,0
2018-01-08T05:50:38.122Z,0
2018-01-08T05:51:37.856Z,0
2018-01-08T05:52:37.927Z,0
2018-01-08T05:53:37.629Z,0
2018-01-08T05:54:37.897Z,0
2018-01-08T05:55:37.905Z,0
2018-01-08T05:56:37.917Z,0
2018-01-08T05:57:37.976Z,0
2018-01-08T05:58:37.941Z,0
2018-01-08T05:59:37.949Z,0
2018-01-08T06:00:38.229Z,0
2018-01-08T06:01:37.961Z,0
2018-01-08T06:02:37.977Z,0
2018-01-08T06:03:37.710Z,0
2018-01-08T06:04:37.713Z,0
2018-01-08T06:05:38.289Z,0
2018-01-08T06:06:38.019Z,0
2018-01-08T06:07:38.033Z,0
2018-01-08T06:08:38.317Z,0
2018-01-08T06:09:37.771Z,0
2018-01-08T06:10:37.786Z,0
2018-01-08T06:11:38.074Z,0
2018-01-08T06:12:38.079Z,0
2018-01-08T06:13:38.372Z,0
2018-01-08T06:14:38.116Z,0
2018-01-08T06:15:38.392Z,0
2018-01-08T06:16:38.403Z,0
2018-01-08T06:17:37.954Z,0
2018-01-08T06:18:37.871Z,0
2018-01-08T06:19:38.431Z,0
2018-01-08T06:20:37.889Z,0
2018-01-08T06:21:37.903Z,0
2018-01-08T06:22:38.512Z,0
2018-01-08T06:23:38.201Z,0
2018-01-08T06:24:38.484Z,0
2018-01-08T06:25:37.955Z,0
2018-01-08T06:26:38.515Z,0
2018-01-08T06:27:37.960Z,0
2018-01-08T06:28:38.253Z,0
2018-01-08T06:29:37.983Z,0
2018-01-08T06:30:38.548Z,0
2018-01-08T06:31:38.287Z,0
2018-01-08T06:32:38.571Z,0
2018-01-08T06:33:38.307Z,0
2018-01-08T06:34:38.340Z,0
2018-01-08T06:35:38.351Z,0
2018-01-08T06:36:38.344Z,0
2018-01-08T06:37:38.350Z,0
2018-01-08T06:38:38.633Z,0
2018-01-08T06:39:38.363Z,0
2018-01-08T06:40:38.647Z,0
2018-01-08T06:41:38.114Z,0
2018-01-08T06:42:38.120Z,0
2018-01-08T06:43:38.694Z,0
2018-01-08T06:44:38.416Z,0
2018-01-08T06:45:38.157Z,0
2018-01-08T06:46:38.493Z,0
2018-01-08T06:47:38.178Z,0
2018-01-08T06:48:38.738Z,0
2018-01-08T06:49:38.747Z,0
2018-01-08T06:50:38.204Z,0
2018-01-08T06:51:38.498Z,0
2018-01-08T06:52:38.551Z,0
2018-01-08T06:53:38.790Z,0
2018-01-08T06:54:38.800Z,0
2018-01-08T06:55:38.537Z,4
2018-01-08T06:56:38.840Z,4
2018-01-08T06:57:38.280Z,0
2018-01-08T06:58:38.290Z,0
2018-01-08T06:59:38.572Z,4
2018-01-08T07:00:38.033Z,4
2018-01-08T07:01:38.875Z,4
2018-01-08T07:02:38.886Z,4
2018-01-08T07:03:38.896Z,8
2018-01-08T07:04:38.632Z,4
2018-01-08T07:05:38.084Z,8
2018-01-08T07:06:38.096Z,8
2018-01-08T07:07:38.938Z,4
2018-01-08T07:08:38.994Z,8
2018-01-08T07:09:38.401Z,8
2018-01-08T07:10:38.693Z,12
2018-01-08T07:11:38.705Z,8
2018-01-08T07:12:38.987Z,12
2018-01-08T07:13:38.724Z,12
2018-01-08T07:14:39.011Z,12
2018-01-08T07:15:39.019Z,16
2018-01-08T07:16:38.758Z,16
2018-01-08T07:17:38.768Z,16
2018-01-08T07:18:38.772Z,20
2018-01-08T07:19:38.779Z,20
2018-01-08T07:20:38.800Z,20
2018-01-08T07:21:39.083Z,24
2018-01-08T07:22:38.811Z,28
2018-01-08T07:23:38.560Z,24
2018-01-08T07:24:39.125Z,28
2018-01-08T07:25:38.847Z,32
2018-01-08T07:26:38.860Z,32
2018-01-08T07:27:38.866Z,32
2018-01-08T07:28:38.935Z,36
2018-01-08T07:29:39.169Z,40
2018-01-08T07:30:38.916Z,36
2018-01-08T07:31:38.909Z,48
2018-01-08T07:32:39.203Z,48
2018-01-08T07:33:39.212Z,48
2018-01-08T07:34:39.054Z,52
2018-01-08T07:35:39.228Z,56
2018-01-08T07:36:39.244Z,60
2018-01-08T07:37:38.971Z,64
2018-01-08T07:38:38.986Z,68
2018-01-08T07:39:38.994Z,76
2018-01-08T07:40:39.290Z,84
2018-01-08T07:41:38.739Z,80
2018-01-08T07:42:39.040Z,88
2018-01-08T07:43:39.036Z,96
2018-01-08T07:44:38.827Z,96
2018-01-08T07:45:39.059Z,100
2018-01-08T07:46:38.517Z,104
2018-01-08T07:47:39.396Z,108
2018-01-08T07:48:39.091Z,112
2018-01-08T07:49:39.379Z,112
2018-01-08T07:50:39.112Z,124
2018-01-08T07:51:39.407Z,124
2018-01-08T07:52:39.406Z,124
2018-01-08T07:53:39.141Z,128
2018-01-08T07:54:39.529Z,136
2018-01-08T07:55:39.159Z,132
2018-01-08T07:56:38.904Z,140
2018-01-08T07:57:39.186Z,116
2018-01-08T07:58:39.508Z,136
2018-01-08T07:59:39.207Z,148
2018-01-08T08:00:39.216Z,148
2018-01-08T08:01:39.226Z,148
2018-01-08T08:02:39.242Z,148
2018-01-08T08:03:38.973Z,144
2018-01-08T08:04:38.980Z,144
2018-01-08T08:05:39.271Z,164
2018-01-08T08:06:39.279Z,160
2018-01-08T08:07:39.290Z,176
2018-01-08T08:08:39.308Z,160
2018-01-08T08:09:39.036Z,164
2018-01-08T08:10:39.599Z,180
2018-01-08T08:11:39.602Z,188
2018-01-08T08:12:39.342Z,180
2018-01-08T08:13:39.686Z,180
2018-01-08T08:14:39.091Z,164
2018-01-08T08:15:39.651Z,196
2018-01-08T08:16:39.380Z,180
2018-01-08T08:17:39.389Z,196
2018-01-08T08:18:39.407Z,192
2018-01-08T08:19:39.421Z,184
2018-01-08T08:20:39.426Z,184
2018-01-08T08:21:39.437Z,212
2018-01-08T08:22:39.448Z,172
2018-01-08T08:23:39.180Z,236
2018-01-08T08:24:39.745Z,176
2018-01-08T08:25:39.480Z,240
2018-01-08T08:26:38.942Z,240
2018-01-08T08:27:39.501Z,176
2018-01-08T08:28:39.508Z,260
2018-01-08T08:29:39.802Z,180
2018-01-08T08:30:39.253Z,216
2018-01-08T08:31:39.546Z,264
2018-01-08T08:32:39.003Z,252
2018-01-08T08:33:39.290Z,188
2018-01-08T08:34:39.854Z,224
2018-01-08T08:35:39.321Z,212
2018-01-08T08:36:39.314Z,224
2018-01-08T08:37:39.600Z,240
2018-01-08T08:38:39.616Z,236
2018-01-08T08:39:39.642Z,300
2018-01-08T08:40:39.425Z,256
2018-01-08T08:41:39.645Z,280
2018-01-08T08:42:39.662Z,288
2018-01-08T08:43:39.122Z,288
2018-01-08T08:44:39.687Z,316
2018-01-08T08:45:39.695Z,308
2018-01-08T08:46:39.430Z,320
2018-01-08T08:47:39.712Z,316
2018-01-08T08:48:40.054Z,356
2018-01-08T08:49:39.733Z,324
2018-01-08T08:50:40.020Z,344
2018-01-08T08:51:40.030Z,372
2018-01-08T08:52:39.767Z,400
2018-01-08T08:53:39.773Z,420
2018-01-08T08:54:39.838Z,448
2018-01-08T08:55:39.794Z,444
2018-01-08T08:56:40.080Z,444
2018-01-08T08:57:39.817Z,428
2018-01-08T08:58:39.552Z,416
2018-01-08T08:59:40.117Z,404
2018-01-08T09:00:39.620Z,392
2018-01-08T09:01:39.856Z,400
2018-01-08T09:02:39.597Z,376
2018-01-08T09:03:40.230Z,372
2018-01-08T09:04:39.615Z,368
2018-01-08T09:05:39.349Z,372
2018-01-08T09:06:39.640Z,392
2018-01-08T09:07:40.231Z,452
2018-01-08T09:08:39.944Z,404
2018-01-08T09:09:40.226Z,420
2018-01-08T09:10:39.681Z,372
2018-01-08T09:11:40.238Z,356
2018-01-08T09:12:39.702Z,372
2018-01-08T09:13:40.291Z,380
2018-01-08T09:14:40.488Z,428
2018-01-08T09:15:40.038Z,360
2018-01-08T09:16:40.016Z,496
2018-01-08T09:17:40.027Z,348
2018-01-08T09:18:40.037Z,404
2018-01-08T09:19:40.046Z,404
2018-01-08T09:20:40.059Z,376
2018-01-08T09:21:40.345Z,408
2018-01-08T09:22:40.374Z,412
2018-01-08T09:23:39.821Z,424
2018-01-08T09:24:40.111Z,548
2018-01-08T09:25:40.389Z,448
2018-01-08T09:26:39.569Z,484
2018-01-08T09:27:40.159Z,436
2018-01-08T09:28:39.873Z,472
2018-01-08T09:29:40.440Z,444
2018-01-08T09:30:40.446Z,460
2018-01-08T09:31:40.182Z,460
2018-01-08T09:32:40.475Z,500
2018-01-08T09:33:40.239Z,516
2018-01-08T09:34:40.088Z,508
2018-01-08T09:35:39.943Z,512
2018-01-08T09:36:40.235Z,540
2018-01-08T09:37:40.520Z,572
2018-01-08T09:38:40.525Z,544
2018-01-08T09:39:40.319Z,512
2018-01-08T09:40:39.996Z,572
2018-01-08T09:41:40.388Z,548
2018-01-08T09:42:40.366Z,548
2018-01-08T09:43:40.690Z,596
2018-01-08T09:44:39.836Z,624
2018-01-08T09:45:40.625Z,596
2018-01-08T09:46:40.111Z,576
2018-01-08T09:47:40.639Z,572
2018-01-08T09:48:40.112Z,572
2018-01-08T09:49:40.714Z,588
2018-01-08T09:50:40.111Z,644
2018-01-08T09:51:40.392Z,640
2018-01-08T09:52:40.140Z,636
2018-01-08T09:53:40.484Z,628
2018-01-08T09:54:40.809Z,564
2018-01-08T09:55:40.435Z,672
2018-01-08T09:56:40.578Z,708
2018-01-08T09:57:40.845Z,720
2018-01-08T09:58:40.752Z,756
2018-01-08T09:59:40.761Z,724
2018-01-08T10:00:40.211Z,748
2018-01-08T10:01:40.231Z,684
2018-01-08T10:02:40.513Z,636
2018-01-08T10:03:40.517Z,648
2018-01-08T10:04:40.528Z,648
2018-01-08T10:05:40.819Z,632
2018-01-08T10:06:40.866Z,664
2018-01-08T10:07:40.571Z,632
2018-01-08T10:08:40.841Z,636
2018-01-08T10:09:40.918Z,664
2018-01-08T10:10:40.323Z,684
2018-01-08T10:11:40.879Z,608
2018-01-08T10:12:40.889Z,600
2018-01-08T10:13:40.931Z,620
2018-01-08T10:14:40.917Z,624
2018-01-08T10:15:40.923Z,732
2018-01-08T10:16:40.939Z,688
2018-01-08T10:17:40.391Z,688
2018-01-08T10:18:40.971Z,640
2018-01-08T10:19:40.964Z,672
2018-01-08T10:20:40.709Z,664
2018-01-08T10:21:40.988Z,640
2018-01-08T10:22:40.733Z,616
2018-01-08T10:23:40.731Z,616
2018-01-08T10:24:41.028Z,596
2018-01-08T10:25:40.755Z,600
2018-01-08T10:26:41.046Z,604
2018-01-08T10:27:40.790Z,588
2018-01-08T10:28:41.072Z,572
2018-01-08T10:29:40.802Z,576
2018-01-08T10:30:40.816Z,572
2018-01-08T10:31:40.551Z,552
2018-01-08T10:32:40.829Z,536
2018-01-08T10:33:40.847Z,540
2018-01-08T10:34:40.620Z,552
2018-01-08T10:35:40.863Z,548
2018-01-08T10:36:41.157Z,576
2018-01-08T10:37:40.890Z,604
2018-01-08T10:38:40.907Z,616
2018-01-08T10:39:40.906Z,608
2018-01-08T10:40:40.926Z,644
2018-01-08T10:41:40.939Z,664
2018-01-08T10:42:40.957Z,660
2018-01-08T10:43:40.951Z,664
2018-01-08T10:44:40.965Z,608
2018-01-08T10:45:40.984Z,648
2018-01-08T10:46:40.989Z,648
2018-01-08T10:47:41.276Z,624
2018-01-08T10:48:40.740Z,644
2018-01-08T10:49:41.022Z,636
2018-01-08T10:50:41.035Z,644
2018-01-08T10:51:41.050Z,668
2018-01-08T10:52:41.397Z,616
2018-01-08T10:53:41.075Z,668
2018-01-08T10:54:40.798Z,648
2018-01-08T10:55:41.092Z,648
2018-01-08T10:56:41.374Z,688
2018-01-08T10:57:41.109Z,656
2018-01-08T10:58:41.118Z,620
2018-01-08T10:59:41.443Z,668
2018-01-08T11:00:41.195Z,632
2018-01-08T11:01:41.436Z,664
2018-01-08T11:02:41.487Z,688
2018-01-08T11:03:41.206Z,696
2018-01-08T11:04:41.189Z,764
2018-01-08T11:05:41.490Z,780
2018-01-08T11:06:40.936Z,856
2018-01-08T11:07:40.945Z,852
2018-01-08T11:08:41.231Z,824
2018-01-08T11:09:41.568Z,844
2018-01-08T11:10:41.332Z,824
2018-01-08T11:11:41.326Z,836
2018-01-08T11:12:41.281Z,808
2018-01-08T11:13:41.593Z,848
2018-01-08T11:14:41.580Z,804
2018-01-08T11:15:41.682Z,796
2018-01-08T11:16:41.322Z,812
2018-01-08T11:17:41.333Z,872
2018-01-08T11:18:41.621Z,824
2018-01-08T11:19:41.639Z,800
2018-01-08T11:20:41.424Z,828
2018-01-08T11:21:41.382Z,780
2018-01-08T11:22:41.388Z,792
2018-01-08T11:23:41.401Z,768
2018-01-08T11:24:41.134Z,936
2018-01-08T11:25:41.476Z,988
2018-01-08T11:26:41.442Z,896
2018-01-08T11:27:41.445Z,944
2018-01-08T11:28:41.459Z,992
2018-01-08T11:29:41.471Z,948
2018-01-08T11:30:41.515Z,980
2018-01-08T11:31:41.501Z,904
2018-01-08T11:32:41.223Z,784
2018-01-08T11:33:41.515Z,824
2018-01-08T11:34:42.030Z,800
2018-01-08T11:35:41.542Z,736
2018-01-08T11:36:41.552Z,792
2018-01-08T11:37:41.837Z,832
2018-01-08T11:38:41.574Z,884
2018-01-08T11:39:41.857Z,848
2018-01-08T11:40:41.321Z,824
2018-01-08T11:41:41.375Z,932
2018-01-08T11:42:41.341Z,904
2018-01-08T11:43:41.627Z,1008
2018-01-08T11:44:41.923Z,992
2018-01-08T11:45:41.650Z,944
2018-01-08T11:46:41.666Z,1020
2018-01-08T11:47:41.952Z,984
2018-01-08T11:48:41.964Z,928
2018-01-08T11:49:41.701Z,996
2018-01-08T11:50:41.704Z,828
2018-01-08T11:51:41.716Z,804
2018-01-08T11:52:42.007Z,788
2018-01-08T11:53:42.033Z,628
2018-01-08T11:54:41.768Z,744
2018-01-08T11:55:41.765Z,760
2018-01-08T11:56:42.046Z,696
2018-01-08T11:57:41.799Z,704
2018-01-08T11:58:42.092Z,664
2018-01-08T11:59:42.095Z,616
2018-01-08T12:00:42.156Z,688
2018-01-08T12:01:41.829Z,588
2018-01-08T12:02:41.842Z,664
2018-01-08T12:03:42.137Z,620
2018-01-08T12:04:41.870Z,576
2018-01-08T12:05:41.927Z,632
2018-01-08T12:06:41.886Z,596
2018-01-08T12:07:41.625Z,772
2018-01-08T12:08:41.916Z,620
2018-01-08T12:09:41.924Z,580
2018-01-08T12:10:42.208Z,576
2018-01-08T12:11:42.223Z,684
2018-01-08T12:12:42.233Z,692
2018-01-08T12:13:41.974Z,668
2018-01-08T12:14:41.980Z,608
2018-01-08T12:15:41.718Z,624
2018-01-08T12:16:41.735Z,608
2018-01-08T12:17:42.293Z,636
2018-01-08T12:18:42.309Z,600
2018-01-08T12:19:42.044Z,544
2018-01-08T12:20:42.328Z,564
2018-01-08T12:21:42.405Z,504
2018-01-08T12:22:42.442Z,508
2018-01-08T12:23:42.087Z,492
2018-01-08T12:24:42.096Z,488
2018-01-08T12:25:42.207Z,492
2018-01-08T12:26:42.133Z,472
2018-01-08T12:27:42.166Z,484
2018-01-08T12:28:42.421Z,448
2018-01-08T12:29:41.882Z,432
2018-01-08T12:30:41.950Z,428
2018-01-08T12:31:41.906Z,444
2018-01-08T12:32:42.186Z,432
2018-01-08T12:33:42.500Z,436
2018-01-08T12:34:42.495Z,436
2018-01-08T12:35:42.504Z,428
2018-01-08T12:36:42.587Z,440
2018-01-08T12:37:42.246Z,508
2018-01-08T12:38:42.267Z,408
2018-01-08T12:39:42.280Z,448
2018-01-08T12:40:42.284Z,412
2018-01-08T12:41:42.295Z,388
2018-01-08T12:42:42.580Z,388
2018-01-08T12:43:42.319Z,396
2018-01-08T12:44:42.058Z,396
2018-01-08T12:45:42.392Z,396
2018-01-08T12:46:42.355Z,396
2018-01-08T12:47:42.638Z,392
2018-01-08T12:48:42.099Z,400
2018-01-08T12:49:42.659Z,400
2018-01-08T12:50:42.682Z,404
2018-01-08T12:51:42.688Z,396
2018-01-08T12:52:42.420Z,400
2018-01-08T12:53:42.156Z,392
2018-01-08T12:54:42.458Z,384
2018-01-08T12:55:42.731Z,372
2018-01-08T12:56:42.463Z,364
2018-01-08T12:57:42.471Z,352
2018-01-08T12:58:42.490Z,344
2018-01-08T12:59:42.842Z,340
2018-01-08T13:00:42.569Z,332
2018-01-08T13:01:42.855Z,324
2018-01-08T13:02:42.807Z,316
2018-01-08T13:03:42.550Z,308
2018-01-08T13:04:42.560Z,300
2018-01-08T13:05:42.626Z,292
2018-01-08T13:06:42.863Z,284
2018-01-08T13:07:42.873Z,280
2018-01-08T13:08:42.610Z,272
2018-01-08T13:09:42.344Z,272
2018-01-08T13:10:42.954Z,264
2018-01-08T13:11:42.914Z,260
2018-01-08T13:12:42.927Z,260
2018-01-08T13:13:42.973Z,256
2018-01-08T13:14:42.953Z,252
2018-01-08T13:15:42.688Z,252
2018-01-08T13:16:42.751Z,248
2018-01-08T13:17:42.711Z,244
2018-01-08T13:18:43.014Z,240
2018-01-08T13:19:43.006Z,240
2018-01-08T13:20:42.799Z,240
2018-01-08T13:21:42.806Z,236
2018-01-08T13:22:43.050Z,232
2018-01-08T13:23:42.783Z,232
2018-01-08T13:24:42.521Z,232
2018-01-08T13:25:42.797Z,236
2018-01-08T13:26:42.817Z,240
2018-01-08T13:27:43.102Z,240
2018-01-08T13:28:43.112Z,240
2018-01-08T13:29:43.163Z,240
2018-01-08T13:30:42.870Z,240
2018-01-08T13:31:43.143Z,232
2018-01-08T13:32:42.883Z,232
2018-01-08T13:33:42.625Z,228
2018-01-08T13:34:43.196Z,228
2018-01-08T13:35:43.191Z,224
2018-01-08T13:36:43.201Z,224
2018-01-08T13:37:42.972Z,220
2018-01-08T13:38:43.227Z,220
2018-01-08T13:39:42.964Z,216
2018-01-08T13:40:42.976Z,216
2018-01-08T13:41:43.262Z,216
2018-01-08T13:42:43.000Z,212
2018-01-08T13:43:43.281Z,216
2018-01-08T13:44:42.468Z,216
2018-01-08T13:45:43.302Z,220
2018-01-08T13:46:43.442Z,216
2018-01-08T13:47:43.115Z,216
2018-01-08T13:48:43.064Z,212
2018-01-08T13:49:43.358Z,212
2018-01-08T13:50:43.373Z,208
2018-01-08T13:51:42.873Z,208
2018-01-08T13:52:43.134Z,208
2018-01-08T13:53:43.452Z,204
2018-01-08T13:54:43.131Z,200
2018-01-08T13:55:43.430Z,200
2018-01-08T13:56:43.153Z,196
2018-01-08T13:57:43.466Z,192
2018-01-08T13:58:43.194Z,192
2018-01-08T13:59:42.914Z,192
2018-01-08T14:00:43.206Z,192
2018-01-08T14:01:43.493Z,188
2018-01-08T14:02:43.495Z,184
2018-01-08T14:03:42.956Z,184
2018-01-08T14:04:43.520Z,180
2018-01-08T14:05:43.539Z,176
2018-01-08T14:06:43.267Z,172
2018-01-08T14:07:43.279Z,172
2018-01-08T14:08:43.017Z,172
2018-01-08T14:09:43.581Z,168
2018-01-08T14:10:43.587Z,168
2018-01-08T14:11:43.332Z,164
2018-01-08T14:12:43.619Z,164
2018-01-08T14:13:43.077Z,160
2018-01-08T14:14:43.679Z,156
2018-01-08T14:15:43.097Z,156
2018-01-08T14:16:43.658Z,152